West Union, SC (29696)

01:47 PM EDT del 27 Maggio 2015 (GMT -0400)
West Walhalla (Near Library) KelBren | | Change Station
CLOSE
Current Station
Stazione meteo personale
Location: Walhalla, SC
Altitudine: 1060 ft
Stazioni meteo nelle vicinanze

Alt. 1060 ft 34.76 °N, 83.07 °W | Updated 53 minutes ago

Coperto
Coperto
74.5 °F
Sembra 76 °F
N
0.0
Vento Variabile Vento da SO

Oggi
Massima -- | Minima -- °F
--% Possibilità di precip.
Ieri
Massima -- | Minima -- °F
Precip. -- in
6:22 AM 8:36 PM
Gobba a ponente, 69% visible
Pressione 30.25 in
Visibilità 10.0 miglia
Nuvole Coperto 3700 ft
Indice di calore 76 °F
Punto di rugiada 64 °F
Umidità 69%
Piovosità 0.00 in
Spessore del manto nevoso Non disponibile.
Raggi UV 4 fuori da 12
Polline .80 fuori da 12
Qualità dell'aria Non disponibile.
Flu Activity Local Activity
METAR KCEU 271654Z AUTO VRB04KT 10SM OVC037 25/18 A3028 RMK AO2 SLP243 T02500183

More Conditions Fewer Conditions

Pressione 30.25 in
Visibilità 10.0 miglia
Nuvole Coperto 3700 ft
Indice di calore 76 °F
Punto di rugiada 64 °F
Umidità 69%
Piovosità 0.00 in
Spessore del manto nevoso Non disponibile.
Raggi UV 4 fuori da 12
Polline .80 fuori da 12
Qualità dell'aria Non disponibile.
Flu Activity Local Activity
METAR KCEU 271654Z AUTO VRB04KT 10SM OVC037 25/18 A3028 RMK AO2 SLP243 T02500183

More Conditions Fewer Conditions

10-Day Weather Forecast

Almanac

Astronomia

May. 27, 2015 Alba Tramonto
Ora attuale
Crepuscolo civile
Crepuscolo nautico
Crepuscolo astronomico
Luna
Estensione della luce visibile
Lunghezza del giorno
Tomorrow will be .
, % of the Moon is Illuminated

Gli estremi di oggi

State Highs State Lows

Community

WunderPhotos

Upload Photos

1,824,733 foto caricate!

WunderBlogs® & News

Nearby

Qualità dell'aria

  Qualità dell'aria Indice AQ Inquinante
Not available.

Profondità neve

Stazione Profondità Altitudine

Attività sismica

Città  Distanza Mag. Data & Ora
Minimo Magnitudo Mostrato è 2.5.

Temperature delle acque costiere

Località Temperatura

Stations

Stazioni meteo nelle vicinanze

Ubicazione della stazione Temp. Raffreddamento del vento Punto di rugiada Umidità Vento Precip. Alt. Aggiornato Tipo